sensor_id;sensor_type;location;lat;lon;timestamp;P1;durP1;ratioP1;P2;durP2;ratioP2
24277;SDS011;12394;42.692;23.314;2023-12-29T00:01:59;111.53;;;62.13;;
24277;SDS011;12394;42.692;23.314;2023-12-29T00:04:25;108.43;;;64.27;;
24277;SDS011;12394;42.692;23.314;2023-12-29T00:06:51;115.03;;;64.53;;
24277;SDS011;12394;42.692;23.314;2023-12-29T00:09:16;111.47;;;65.60;;
24277;SDS011;12394;42.692;23.314;2023-12-29T00:11:45;117.53;;;66.87;;
24277;SDS011;12394;42.692;23.314;2023-12-29T00:14:14;114.30;;;69.80;;
24277;SDS011;12394;42.692;23.314;2023-12-29T00:16:40;121.17;;;66.47;;
24277;SDS011;12394;42.692;23.314;2023-12-29T00:19:06;113.63;;;69.27;;
24277;SDS011;12394;42.692;23.314;2023-12-29T00:21:31;125.60;;;69.30;;
24277;SDS011;12394;42.692;23.314;2023-12-29T00:23:57;118.23;;;68.20;;
24277;SDS011;12394;42.692;23.314;2023-12-29T00:26:23;116.00;;;68.63;;
24277;SDS011;12394;42.692;23.314;2023-12-29T00:28:48;120.93;;;69.03;;
24277;SDS011;12394;42.692;23.314;2023-12-29T00:31:14;124.50;;;68.47;;
24277;SDS011;12394;42.692;23.314;2023-12-29T00:33:45;120.33;;;69.33;;
24277;SDS011;12394;42.692;23.314;2023-12-29T00:36:17;120.87;;;67.87;;
24277;SDS011;12394;42.692;23.314;2023-12-29T00:38:44;120.00;;;70.27;;
24277;SDS011;12394;42.692;23.314;2023-12-29T00:41:09;118.03;;;68.07;;
24277;SDS011;12394;42.692;23.314;2023-12-29T00:43:35;99.77;;;60.50;;
24277;SDS011;12394;42.692;23.314;2023-12-29T00:46:01;86.43;;;51.80;;
24277;SDS011;12394;42.692;23.314;2023-12-29T00:48:28;88.20;;;52.30;;
24277;SDS011;12394;42.692;23.314;2023-12-29T00:50:54;95.03;;;57.30;;
24277;SDS011;12394;42.692;23.314;2023-12-29T00:53:19;99.17;;;59.23;;
24277;SDS011;12394;42.692;23.314;2023-12-29T00:55:45;107.77;;;61.37;;
24277;SDS011;12394;42.692;23.314;2023-12-29T00:58:10;109.47;;;63.67;;
24277;SDS011;12394;42.692;23.314;2023-12-29T01:00:36;105.50;;;63.07;;
24277;SDS011;12394;42.692;23.314;2023-12-29T01:03:01;109.37;;;64.43;;
24277;SDS011;12394;42.692;23.314;2023-12-29T01:05:27;109.37;;;67.17;;
24277;SDS011;12394;42.692;23.314;2023-12-29T01:07:52;112.73;;;66.23;;
24277;SDS011;12394;42.692;23.314;2023-12-29T01:10:18;122.40;;;74.10;;
24277;SDS011;12394;42.692;23.314;2023-12-29T01:12:43;113.80;;;67.47;;
24277;SDS011;12394;42.692;23.314;2023-12-29T01:15:09;117.10;;;68.27;;
24277;SDS011;12394;42.692;23.314;2023-12-29T01:17:35;113.87;;;69.00;;
24277;SDS011;12394;42.692;23.314;2023-12-29T01:20:00;120.30;;;66.80;;
24277;SDS011;12394;42.692;23.314;2023-12-29T01:22:28;116.50;;;67.53;;
24277;SDS011;12394;42.692;23.314;2023-12-29T01:24:53;123.57;;;67.03;;
24277;SDS011;12394;42.692;23.314;2023-12-29T01:27:19;114.03;;;66.57;;
24277;SDS011;12394;42.692;23.314;2023-12-29T01:29:44;119.67;;;68.73;;
24277;SDS011;12394;42.692;23.314;2023-12-29T01:32:10;110.97;;;66.03;;
24277;SDS011;12394;42.692;23.314;2023-12-29T01:34:35;125.37;;;72.80;;
24277;SDS011;12394;42.692;23.314;2023-12-29T01:37:02;133.27;;;70.73;;
24277;SDS011;12394;42.692;23.314;2023-12-29T01:39:28;127.57;;;70.23;;
24277;SDS011;12394;42.692;23.314;2023-12-29T01:41:58;107.33;;;65.90;;
24277;SDS011;12394;42.692;23.314;2023-12-29T01:44:24;117.33;;;64.70;;
24277;SDS011;12394;42.692;23.314;2023-12-29T01:46:50;111.63;;;64.60;;
24277;SDS011;12394;42.692;23.314;2023-12-29T01:49:17;109.43;;;63.30;;
24277;SDS011;12394;42.692;23.314;2023-12-29T01:51:44;108.80;;;62.33;;
24277;SDS011;12394;42.692;23.314;2023-12-29T01:54:12;108.43;;;64.00;;
24277;SDS011;12394;42.692;23.314;2023-12-29T01:56:38;107.87;;;63.30;;
24277;SDS011;12394;42.692;23.314;2023-12-29T01:59:05;107.83;;;60.83;;
24277;SDS011;12394;42.692;23.314;2023-12-29T02:01:31;110.03;;;63.37;;
24277;SDS011;12394;42.692;23.314;2023-12-29T02:03:57;102.83;;;65.03;;
24277;SDS011;12394;42.692;23.314;2023-12-29T02:06:23;106.80;;;60.27;;
24277;SDS011;12394;42.692;23.314;2023-12-29T02:08:49;111.97;;;64.30;;
24277;SDS011;12394;42.692;23.314;2023-12-29T02:11:16;112.47;;;64.03;;
24277;SDS011;12394;42.692;23.314;2023-12-29T02:13:43;121.87;;;65.37;;
24277;SDS011;12394;42.692;23.314;2023-12-29T02:16:16;114.07;;;65.37;;
24277;SDS011;12394;42.692;23.314;2023-12-29T02:18:46;107.10;;;62.53;;
24277;SDS011;12394;42.692;23.314;2023-12-29T02:21:15;104.20;;;61.27;;
24277;SDS011;12394;42.692;23.314;2023-12-29T02:23:41;104.17;;;62.13;;
24277;SDS011;12394;42.692;23.314;2023-12-29T02:26:09;110.17;;;64.43;;
24277;SDS011;12394;42.692;23.314;2023-12-29T02:28:42;110.67;;;62.33;;
24277;SDS011;12394;42.692;23.314;2023-12-29T02:31:14;107.93;;;61.53;;
24277;SDS011;12394;42.692;23.314;2023-12-29T02:33:44;108.30;;;60.33;;
24277;SDS011;12394;42.692;23.314;2023-12-29T02:36:12;106.73;;;64.13;;
24277;SDS011;12394;42.692;23.314;2023-12-29T02:38:39;108.20;;;64.20;;
24277;SDS011;12394;42.692;23.314;2023-12-29T02:41:05;107.60;;;64.17;;
24277;SDS011;12394;42.692;23.314;2023-12-29T02:43:31;120.97;;;72.87;;
24277;SDS011;12394;42.692;23.314;2023-12-29T02:45:57;141.17;;;78.83;;
24277;SDS011;12394;42.692;23.314;2023-12-29T02:48:23;128.73;;;79.37;;
24277;SDS011;12394;42.692;23.314;2023-12-29T02:50:48;131.43;;;72.07;;
24277;SDS011;12394;42.692;23.314;2023-12-29T02:53:14;138.07;;;76.20;;
24277;SDS011;12394;42.692;23.314;2023-12-29T02:55:39;124.17;;;72.53;;
24277;SDS011;12394;42.692;23.314;2023-12-29T02:58:05;118.03;;;69.77;;
24277;SDS011;12394;42.692;23.314;2023-12-29T03:03:00;110.60;;;64.83;;
24277;SDS011;12394;42.692;23.314;2023-12-29T03:05:25;110.00;;;64.33;;
24277;SDS011;12394;42.692;23.314;2023-12-29T03:07:51;109.10;;;63.40;;
24277;SDS011;12394;42.692;23.314;2023-12-29T03:10:16;113.73;;;63.43;;
24277;SDS011;12394;42.692;23.314;2023-12-29T03:12:42;104.70;;;59.73;;
24277;SDS011;12394;42.692;23.314;2023-12-29T03:15:07;103.50;;;59.53;;
24277;SDS011;12394;42.692;23.314;2023-12-29T03:17:33;100.70;;;59.17;;
24277;SDS011;12394;42.692;23.314;2023-12-29T03:19:59;97.23;;;55.33;;
24277;SDS011;12394;42.692;23.314;2023-12-29T03:22:24;100.70;;;56.47;;
24277;SDS011;12394;42.692;23.314;2023-12-29T03:24:50;90.23;;;51.83;;
24277;SDS011;12394;42.692;23.314;2023-12-29T03:27:15;83.47;;;50.07;;
24277;SDS011;12394;42.692;23.314;2023-12-29T03:29:41;87.07;;;50.20;;
24277;SDS011;12394;42.692;23.314;2023-12-29T03:32:06;83.90;;;50.67;;
24277;SDS011;12394;42.692;23.314;2023-12-29T03:34:32;90.07;;;51.30;;
24277;SDS011;12394;42.692;23.314;2023-12-29T03:36:58;82.07;;;49.23;;
24277;SDS011;12394;42.692;23.314;2023-12-29T03:39:23;90.97;;;50.20;;
24277;SDS011;12394;42.692;23.314;2023-12-29T03:41:49;88.03;;;49.77;;
24277;SDS011;12394;42.692;23.314;2023-12-29T03:44:14;97.00;;;54.50;;
24277;SDS011;12394;42.692;23.314;2023-12-29T03:46:40;98.53;;;56.83;;
24277;SDS011;12394;42.692;23.314;2023-12-29T03:49:05;88.63;;;52.33;;
24277;SDS011;12394;42.692;23.314;2023-12-29T03:51:31;91.03;;;52.10;;
24277;SDS011;12394;42.692;23.314;2023-12-29T03:53:57;94.17;;;54.13;;
24277;SDS011;12394;42.692;23.314;2023-12-29T03:56:23;82.50;;;50.40;;
24277;SDS011;12394;42.692;23.314;2023-12-29T03:58:49;92.33;;;51.40;;
24277;SDS011;12394;42.692;23.314;2023-12-29T04:01:15;85.63;;;53.70;;
24277;SDS011;12394;42.692;23.314;2023-12-29T04:03:42;98.13;;;54.40;;
24277;SDS011;12394;42.692;23.314;2023-12-29T04:06:08;89.40;;;53.07;;
24277;SDS011;12394;42.692;23.314;2023-12-29T04:08:34;99.33;;;56.97;;
24277;SDS011;12394;42.692;23.314;2023-12-29T04:10:59;94.47;;;54.43;;
24277;SDS011;12394;42.692;23.314;2023-12-29T04:13:26;99.47;;;55.30;;
24277;SDS011;12394;42.692;23.314;2023-12-29T04:15:51;97.03;;;57.13;;
24277;SDS011;12394;42.692;23.314;2023-12-29T04:18:17;99.77;;;54.50;;
24277;SDS011;12394;42.692;23.314;2023-12-29T04:20:43;90.50;;;54.30;;
24277;SDS011;12394;42.692;23.314;2023-12-29T04:23:08;103.50;;;56.70;;
24277;SDS011;12394;42.692;23.314;2023-12-29T04:25:34;93.47;;;55.77;;
24277;SDS011;12394;42.692;23.314;2023-12-29T04:28:00;97.83;;;53.60;;
24277;SDS011;12394;42.692;23.314;2023-12-29T04:30:25;91.90;;;53.20;;
24277;SDS011;12394;42.692;23.314;2023-12-29T04:32:51;98.37;;;55.47;;
24277;SDS011;12394;42.692;23.314;2023-12-29T04:35:16;100.33;;;56.47;;
24277;SDS011;12394;42.692;23.314;2023-12-29T04:37:45;95.90;;;53.80;;
24277;SDS011;12394;42.692;23.314;2023-12-29T04:40:11;89.67;;;53.10;;
24277;SDS011;12394;42.692;23.314;2023-12-29T04:42:37;92.03;;;54.00;;
24277;SDS011;12394;42.692;23.314;2023-12-29T04:45:03;95.83;;;53.70;;
24277;SDS011;12394;42.692;23.314;2023-12-29T04:47:29;89.10;;;52.83;;
24277;SDS011;12394;42.692;23.314;2023-12-29T04:49:55;90.73;;;48.63;;
24277;SDS011;12394;42.692;23.314;2023-12-29T04:52:21;84.60;;;47.03;;
24277;SDS011;12394;42.692;23.314;2023-12-29T04:54:46;82.37;;;47.63;;
24277;SDS011;12394;42.692;23.314;2023-12-29T04:57:12;77.17;;;45.27;;
24277;SDS011;12394;42.692;23.314;2023-12-29T04:59:37;89.17;;;46.97;;
24277;SDS011;12394;42.692;23.314;2023-12-29T05:02:02;77.40;;;46.70;;
24277;SDS011;12394;42.692;23.314;2023-12-29T05:04:28;77.90;;;47.43;;
24277;SDS011;12394;42.692;23.314;2023-12-29T05:06:53;90.80;;;46.10;;
24277;SDS011;12394;42.692;23.314;2023-12-29T05:09:19;71.00;;;43.43;;
24277;SDS011;12394;42.692;23.314;2023-12-29T05:11:45;68.87;;;42.47;;
24277;SDS011;12394;42.692;23.314;2023-12-29T05:14:10;72.23;;;43.93;;
24277;SDS011;12394;42.692;23.314;2023-12-29T05:16:36;70.80;;;43.43;;
24277;SDS011;12394;42.692;23.314;2023-12-29T05:19:01;75.67;;;45.00;;
24277;SDS011;12394;42.692;23.314;2023-12-29T05:21:27;76.07;;;42.70;;
24277;SDS011;12394;42.692;23.314;2023-12-29T05:23:53;76.73;;;43.80;;
24277;SDS011;12394;42.692;23.314;2023-12-29T05:26:18;79.50;;;44.93;;
24277;SDS011;12394;42.692;23.314;2023-12-29T05:28:44;75.17;;;43.00;;
24277;SDS011;12394;42.692;23.314;2023-12-29T05:31:09;83.73;;;43.87;;
24277;SDS011;12394;42.692;23.314;2023-12-29T05:33:35;73.37;;;43.13;;
24277;SDS011;12394;42.692;23.314;2023-12-29T05:36:07;76.80;;;43.80;;
24277;SDS011;12394;42.692;23.314;2023-12-29T05:38:34;66.37;;;41.33;;
24277;SDS011;12394;42.692;23.314;2023-12-29T05:41:01;71.30;;;42.30;;
24277;SDS011;12394;42.692;23.314;2023-12-29T05:43:30;68.73;;;43.23;;
24277;SDS011;12394;42.692;23.314;2023-12-29T05:45:56;75.63;;;42.03;;
24277;SDS011;12394;42.692;23.314;2023-12-29T05:48:22;66.50;;;39.37;;
24277;SDS011;12394;42.692;23.314;2023-12-29T05:50:49;72.17;;;42.57;;
24277;SDS011;12394;42.692;23.314;2023-12-29T05:53:15;74.87;;;43.87;;
24277;SDS011;12394;42.692;23.314;2023-12-29T05:55:41;67.13;;;40.97;;
24277;SDS011;12394;42.692;23.314;2023-12-29T05:58:06;71.17;;;42.03;;
24277;SDS011;12394;42.692;23.314;2023-12-29T06:00:32;74.07;;;42.70;;
24277;SDS011;12394;42.692;23.314;2023-12-29T06:02:57;76.03;;;43.30;;
24277;SDS011;12394;42.692;23.314;2023-12-29T06:05:23;74.13;;;42.87;;
24277;SDS011;12394;42.692;23.314;2023-12-29T06:07:48;69.57;;;42.30;;
24277;SDS011;12394;42.692;23.314;2023-12-29T06:10:13;74.83;;;43.60;;
24277;SDS011;12394;42.692;23.314;2023-12-29T06:12:39;82.17;;;46.83;;
24277;SDS011;12394;42.692;23.314;2023-12-29T06:15:05;81.10;;;47.60;;
24277;SDS011;12394;42.692;23.314;2023-12-29T06:17:30;81.27;;;46.93;;
24277;SDS011;12394;42.692;23.314;2023-12-29T06:19:57;77.93;;;48.67;;
24277;SDS011;12394;42.692;23.314;2023-12-29T06:22:23;78.80;;;46.97;;
24277;SDS011;12394;42.692;23.314;2023-12-29T06:24:48;83.50;;;47.03;;
24277;SDS011;12394;42.692;23.314;2023-12-29T06:27:13;84.43;;;47.40;;
24277;SDS011;12394;42.692;23.314;2023-12-29T06:29:40;92.00;;;50.33;;
24277;SDS011;12394;42.692;23.314;2023-12-29T06:32:07;81.97;;;47.50;;
24277;SDS011;12394;42.692;23.314;2023-12-29T06:34:33;80.00;;;43.70;;
24277;SDS011;12394;42.692;23.314;2023-12-29T06:36:58;83.83;;;46.40;;
24277;SDS011;12394;42.692;23.314;2023-12-29T06:39:24;77.20;;;45.00;;
24277;SDS011;12394;42.692;23.314;2023-12-29T06:41:49;70.50;;;43.27;;
24277;SDS011;12394;42.692;23.314;2023-12-29T06:44:15;87.87;;;43.97;;
24277;SDS011;12394;42.692;23.314;2023-12-29T06:46:40;78.03;;;45.33;;
24277;SDS011;12394;42.692;23.314;2023-12-29T06:49:07;78.67;;;45.23;;
24277;SDS011;12394;42.692;23.314;2023-12-29T06:51:33;73.27;;;44.27;;
24277;SDS011;12394;42.692;23.314;2023-12-29T06:53:59;77.07;;;43.60;;
24277;SDS011;12394;42.692;23.314;2023-12-29T06:56:25;75.73;;;41.83;;
24277;SDS011;12394;42.692;23.314;2023-12-29T06:58:51;78.93;;;40.17;;
24277;SDS011;12394;42.692;23.314;2023-12-29T07:01:16;72.13;;;43.87;;
24277;SDS011;12394;42.692;23.314;2023-12-29T07:03:42;77.23;;;47.23;;
24277;SDS011;12394;42.692;23.314;2023-12-29T07:06:07;73.97;;;45.57;;
24277;SDS011;12394;42.692;23.314;2023-12-29T07:08:34;78.13;;;43.93;;
24277;SDS011;12394;42.692;23.314;2023-12-29T07:11:01;75.40;;;45.37;;
24277;SDS011;12394;42.692;23.314;2023-12-29T07:13:26;73.77;;;44.47;;
24277;SDS011;12394;42.692;23.314;2023-12-29T07:15:52;73.80;;;42.83;;
24277;SDS011;12394;42.692;23.314;2023-12-29T07:18:17;66.73;;;42.93;;
24277;SDS011;12394;42.692;23.314;2023-12-29T07:20:43;73.27;;;40.63;;
24277;SDS011;12394;42.692;23.314;2023-12-29T07:23:08;60.70;;;39.63;;
24277;SDS011;12394;42.692;23.314;2023-12-29T07:25:34;62.73;;;41.00;;
24277;SDS011;12394;42.692;23.314;2023-12-29T07:27:59;67.40;;;41.00;;
24277;SDS011;12394;42.692;23.314;2023-12-29T07:30:25;77.40;;;43.67;;
24277;SDS011;12394;42.692;23.314;2023-12-29T07:32:51;67.77;;;43.50;;
24277;SDS011;12394;42.692;23.314;2023-12-29T07:35:16;73.67;;;44.37;;
24277;SDS011;12394;42.692;23.314;2023-12-29T07:37:44;77.90;;;43.90;;
24277;SDS011;12394;42.692;23.314;2023-12-29T07:40:10;83.47;;;44.50;;
24277;SDS011;12394;42.692;23.314;2023-12-29T07:42:37;68.30;;;43.27;;
24277;SDS011;12394;42.692;23.314;2023-12-29T07:45:02;72.87;;;45.87;;
24277;SDS011;12394;42.692;23.314;2023-12-29T07:47:28;73.43;;;47.37;;
24277;SDS011;12394;42.692;23.314;2023-12-29T07:49:54;95.17;;;61.03;;
24277;SDS011;12394;42.692;23.314;2023-12-29T07:52:19;82.70;;;51.87;;
24277;SDS011;12394;42.692;23.314;2023-12-29T07:54:45;85.83;;;52.00;;
24277;SDS011;12394;42.692;23.314;2023-12-29T07:57:10;84.60;;;52.47;;
24277;SDS011;12394;42.692;23.314;2023-12-29T07:59:35;79.03;;;50.60;;
24277;SDS011;12394;42.692;23.314;2023-12-29T08:02:01;82.83;;;49.00;;
24277;SDS011;12394;42.692;23.314;2023-12-29T08:04:27;84.13;;;51.83;;
24277;SDS011;12394;42.692;23.314;2023-12-29T08:06:53;82.60;;;52.53;;
24277;SDS011;12394;42.692;23.314;2023-12-29T08:09:18;78.67;;;50.40;;
24277;SDS011;12394;42.692;23.314;2023-12-29T08:11:45;83.40;;;51.83;;
24277;SDS011;12394;42.692;23.314;2023-12-29T08:14:10;77.50;;;50.33;;
24277;SDS011;12394;42.692;23.314;2023-12-29T08:16:39;81.87;;;51.37;;
24277;SDS011;12394;42.692;23.314;2023-12-29T08:19:07;75.63;;;51.93;;
24277;SDS011;12394;42.692;23.314;2023-12-29T08:21:33;79.03;;;52.43;;
24277;SDS011;12394;42.692;23.314;2023-12-29T08:23:59;78.27;;;54.03;;
24277;SDS011;12394;42.692;23.314;2023-12-29T08:26:24;79.57;;;53.43;;
24277;SDS011;12394;42.692;23.314;2023-12-29T08:28:51;76.20;;;51.97;;
24277;SDS011;12394;42.692;23.314;2023-12-29T08:31:18;79.03;;;52.93;;
24277;SDS011;12394;42.692;23.314;2023-12-29T08:33:44;76.07;;;52.20;;
24277;SDS011;12394;42.692;23.314;2023-12-29T08:36:11;76.03;;;51.97;;
24277;SDS011;12394;42.692;23.314;2023-12-29T08:38:37;81.93;;;53.53;;
24277;SDS011;12394;42.692;23.314;2023-12-29T08:41:03;79.63;;;54.37;;
24277;SDS011;12394;42.692;23.314;2023-12-29T08:43:29;86.97;;;56.00;;
24277;SDS011;12394;42.692;23.314;2023-12-29T08:45:55;70.30;;;51.80;;
24277;SDS011;12394;42.692;23.314;2023-12-29T08:48:20;75.47;;;54.23;;
24277;SDS011;12394;42.692;23.314;2023-12-29T08:50:46;75.13;;;54.07;;
24277;SDS011;12394;42.692;23.314;2023-12-29T08:53:12;73.87;;;51.13;;
24277;SDS011;12394;42.692;23.314;2023-12-29T08:55:38;79.63;;;53.53;;
24277;SDS011;12394;42.692;23.314;2023-12-29T08:58:03;86.37;;;54.50;;
24277;SDS011;12394;42.692;23.314;2023-12-29T09:00:29;83.47;;;52.93;;
24277;SDS011;12394;42.692;23.314;2023-12-29T09:02:55;91.13;;;55.60;;
24277;SDS011;12394;42.692;23.314;2023-12-29T09:05:21;86.60;;;55.13;;
24277;SDS011;12394;42.692;23.314;2023-12-29T09:07:47;81.07;;;54.70;;
24277;SDS011;12394;42.692;23.314;2023-12-29T09:10:13;85.73;;;54.17;;
24277;SDS011;12394;42.692;23.314;2023-12-29T09:12:58;80.13;;;54.67;;
24277;SDS011;12394;42.692;23.314;2023-12-29T09:15:24;85.97;;;55.30;;
24277;SDS011;12394;42.692;23.314;2023-12-29T09:17:49;76.70;;;55.13;;
24277;SDS011;12394;42.692;23.314;2023-12-29T09:20:15;80.40;;;54.37;;
24277;SDS011;12394;42.692;23.314;2023-12-29T09:22:41;91.03;;;55.10;;
24277;SDS011;12394;42.692;23.314;2023-12-29T09:25:07;86.57;;;55.80;;
24277;SDS011;12394;42.692;23.314;2023-12-29T09:27:32;68.67;;;50.83;;
24277;SDS011;12394;42.692;23.314;2023-12-29T09:29:58;65.43;;;50.13;;
24277;SDS011;12394;42.692;23.314;2023-12-29T09:32:23;85.73;;;56.77;;
24277;SDS011;12394;42.692;23.314;2023-12-29T09:34:49;70.67;;;51.27;;
24277;SDS011;12394;42.692;23.314;2023-12-29T09:37:14;62.37;;;45.23;;
24277;SDS011;12394;42.692;23.314;2023-12-29T09:39:40;60.10;;;44.53;;
24277;SDS011;12394;42.692;23.314;2023-12-29T09:42:06;56.90;;;45.27;;
24277;SDS011;12394;42.692;23.314;2023-12-29T09:44:34;63.63;;;43.23;;
24277;SDS011;12394;42.692;23.314;2023-12-29T09:47:01;67.90;;;47.53;;
24277;SDS011;12394;42.692;23.314;2023-12-29T09:49:35;77.20;;;49.90;;
24277;SDS011;12394;42.692;23.314;2023-12-29T09:52:09;62.10;;;46.53;;
24277;SDS011;12394;42.692;23.314;2023-12-29T09:54:37;65.90;;;47.77;;
24277;SDS011;12394;42.692;23.314;2023-12-29T09:57:04;81.43;;;51.47;;
24277;SDS011;12394;42.692;23.314;2023-12-29T09:59:32;70.47;;;50.90;;
24277;SDS011;12394;42.692;23.314;2023-12-29T10:02:04;72.93;;;52.63;;
24277;SDS011;12394;42.692;23.314;2023-12-29T10:04:30;77.00;;;50.50;;
24277;SDS011;12394;42.692;23.314;2023-12-29T10:06:56;65.87;;;49.87;;
24277;SDS011;12394;42.692;23.314;2023-12-29T10:09:25;78.33;;;52.67;;
24277;SDS011;12394;42.692;23.314;2023-12-29T10:11:52;69.60;;;49.77;;
24277;SDS011;12394;42.692;23.314;2023-12-29T10:14:28;85.80;;;54.33;;
24277;SDS011;12394;42.692;23.314;2023-12-29T10:17:06;85.03;;;54.03;;
24277;SDS011;12394;42.692;23.314;2023-12-29T10:19:41;73.80;;;52.27;;
24277;SDS011;12394;42.692;23.314;2023-12-29T10:22:21;72.00;;;48.37;;
24277;SDS011;12394;42.692;23.314;2023-12-29T10:27:35;62.17;;;47.80;;
24277;SDS011;12394;42.692;23.314;2023-12-29T10:30:00;64.97;;;45.93;;
24277;SDS011;12394;42.692;23.314;2023-12-29T10:32:26;59.83;;;47.23;;
24277;SDS011;12394;42.692;23.314;2023-12-29T10:35:07;70.60;;;48.80;;
24277;SDS011;12394;42.692;23.314;2023-12-29T10:37:34;68.57;;;50.23;;
24277;SDS011;12394;42.692;23.314;2023-12-29T10:40:00;75.97;;;50.70;;
24277;SDS011;12394;42.692;23.314;2023-12-29T10:42:26;67.00;;;50.77;;
24277;SDS011;12394;42.692;23.314;2023-12-29T10:45:13;70.70;;;50.37;;
24277;SDS011;12394;42.692;23.314;2023-12-29T10:47:43;65.00;;;48.60;;
24277;SDS011;12394;42.692;23.314;2023-12-29T10:50:09;65.37;;;50.70;;
24277;SDS011;12394;42.692;23.314;2023-12-29T10:52:34;67.53;;;49.50;;
24277;SDS011;12394;42.692;23.314;2023-12-29T10:55:06;62.67;;;49.47;;
24277;SDS011;12394;42.692;23.314;2023-12-29T10:57:33;86.80;;;62.27;;
24277;SDS011;12394;42.692;23.314;2023-12-29T10:59:59;71.23;;;49.93;;
24277;SDS011;12394;42.692;23.314;2023-12-29T11:02:28;69.03;;;51.97;;
24277;SDS011;12394;42.692;23.314;2023-12-29T11:05:01;76.17;;;51.03;;
24277;SDS011;12394;42.692;23.314;2023-12-29T11:07:34;68.27;;;48.60;;
24277;SDS011;12394;42.692;23.314;2023-12-29T11:10:04;62.70;;;47.87;;
24277;SDS011;12394;42.692;23.314;2023-12-29T11:12:32;67.20;;;48.23;;
24277;SDS011;12394;42.692;23.314;2023-12-29T11:14:58;80.50;;;49.93;;
24277;SDS011;12394;42.692;23.314;2023-12-29T11:17:25;81.20;;;47.97;;
24277;SDS011;12394;42.692;23.314;2023-12-29T11:19:52;69.17;;;47.40;;
24277;SDS011;12394;42.692;23.314;2023-12-29T11:22:18;71.70;;;46.80;;
24277;SDS011;12394;42.692;23.314;2023-12-29T11:24:47;70.60;;;47.77;;
24277;SDS011;12394;42.692;23.314;2023-12-29T11:27:13;71.97;;;49.60;;
24277;SDS011;12394;42.692;23.314;2023-12-29T11:29:41;69.77;;;47.63;;
24277;SDS011;12394;42.692;23.314;2023-12-29T11:32:10;68.17;;;45.17;;
24277;SDS011;12394;42.692;23.314;2023-12-29T11:34:43;60.93;;;43.80;;
24277;SDS011;12394;42.692;23.314;2023-12-29T11:42:43;68.73;;;43.10;;
24277;SDS011;12394;42.692;23.314;2023-12-29T11:45:24;78.27;;;45.20;;
24277;SDS011;12394;42.692;23.314;2023-12-29T11:48:00;70.83;;;47.23;;
24277;SDS011;12394;42.692;23.314;2023-12-29T11:50:34;60.83;;;43.70;;
24277;SDS011;12394;42.692;23.314;2023-12-29T11:53:02;77.80;;;44.20;;
24277;SDS011;12394;42.692;23.314;2023-12-29T11:55:35;73.50;;;46.43;;
24277;SDS011;12394;42.692;23.314;2023-12-29T11:58:24;64.90;;;43.00;;
24277;SDS011;12394;42.692;23.314;2023-12-29T12:00:55;66.13;;;45.80;;
24277;SDS011;12394;42.692;23.314;2023-12-29T12:03:27;73.17;;;47.03;;
24277;SDS011;12394;42.692;23.314;2023-12-29T12:05:56;74.07;;;47.03;;
24277;SDS011;12394;42.692;23.314;2023-12-29T12:08:27;66.40;;;45.27;;
24277;SDS011;12394;42.692;23.314;2023-12-29T12:13:56;71.97;;;45.07;;
24277;SDS011;12394;42.692;23.314;2023-12-29T12:19:10;62.27;;;44.47;;
24277;SDS011;12394;42.692;23.314;2023-12-29T12:21:36;66.33;;;45.77;;
24277;SDS011;12394;42.692;23.314;2023-12-29T12:24:05;61.00;;;44.87;;
24277;SDS011;12394;42.692;23.314;2023-12-29T12:26:32;68.37;;;46.13;;
24277;SDS011;12394;42.692;23.314;2023-12-29T12:28:58;67.23;;;44.90;;
24277;SDS011;12394;42.692;23.314;2023-12-29T12:31:24;64.87;;;44.70;;
24277;SDS011;12394;42.692;23.314;2023-12-29T12:33:56;72.07;;;45.20;;
24277;SDS011;12394;42.692;23.314;2023-12-29T12:36:22;82.40;;;46.70;;
24277;SDS011;12394;42.692;23.314;2023-12-29T12:38:55;72.93;;;48.93;;
24277;SDS011;12394;42.692;23.314;2023-12-29T12:41:22;78.47;;;48.60;;
24277;SDS011;12394;42.692;23.314;2023-12-29T12:49:12;76.07;;;47.73;;
24277;SDS011;12394;42.692;23.314;2023-12-29T12:51:38;76.30;;;47.03;;
24277;SDS011;12394;42.692;23.314;2023-12-29T12:54:04;73.90;;;45.00;;
24277;SDS011;12394;42.692;23.314;2023-12-29T12:56:30;90.50;;;50.73;;
24277;SDS011;12394;42.692;23.314;2023-12-29T12:58:56;78.33;;;45.50;;
24277;SDS011;12394;42.692;23.314;2023-12-29T13:01:22;69.03;;;44.97;;
24277;SDS011;12394;42.692;23.314;2023-12-29T13:03:49;65.50;;;42.63;;
24277;SDS011;12394;42.692;23.314;2023-12-29T13:06:15;63.53;;;40.37;;
24277;SDS011;12394;42.692;23.314;2023-12-29T13:08:42;61.60;;;39.93;;
24277;SDS011;12394;42.692;23.314;2023-12-29T13:11:08;60.27;;;31.77;;
24277;SDS011;12394;42.692;23.314;2023-12-29T13:13:43;59.13;;;36.70;;
24277;SDS011;12394;42.692;23.314;2023-12-29T13:16:09;53.07;;;32.70;;
24277;SDS011;12394;42.692;23.314;2023-12-29T13:18:34;56.30;;;31.53;;
24277;SDS011;12394;42.692;23.314;2023-12-29T13:21:01;49.17;;;30.30;;
24277;SDS011;12394;42.692;23.314;2023-12-29T13:23:27;48.10;;;29.77;;
24277;SDS011;12394;42.692;23.314;2023-12-29T13:25:56;48.17;;;26.70;;
24277;SDS011;12394;42.692;23.314;2023-12-29T13:28:24;49.73;;;29.27;;
24277;SDS011;12394;42.692;23.314;2023-12-29T13:30:51;50.40;;;27.23;;
24277;SDS011;12394;42.692;23.314;2023-12-29T13:36:09;38.03;;;23.97;;
24277;SDS011;12394;42.692;23.314;2023-12-29T13:38:55;38.77;;;24.17;;
24277;SDS011;12394;42.692;23.314;2023-12-29T13:41:24;36.17;;;24.07;;
24277;SDS011;12394;42.692;23.314;2023-12-29T13:43:53;40.60;;;22.67;;
24277;SDS011;12394;42.692;23.314;2023-12-29T13:46:19;43.60;;;23.40;;
24277;SDS011;12394;42.692;23.314;2023-12-29T13:48:45;36.03;;;22.47;;
24277;SDS011;12394;42.692;23.314;2023-12-29T13:51:16;50.87;;;22.77;;
24277;SDS011;12394;42.692;23.314;2023-12-29T13:53:41;39.57;;;21.47;;
24277;SDS011;12394;42.692;23.314;2023-12-29T13:56:10;43.63;;;21.83;;
24277;SDS011;12394;42.692;23.314;2023-12-29T13:58:36;35.53;;;22.27;;
24277;SDS011;12394;42.692;23.314;2023-12-29T14:01:03;44.60;;;23.27;;
24277;SDS011;12394;42.692;23.314;2023-12-29T14:06:32;26.00;;;17.43;;
24277;SDS011;12394;42.692;23.314;2023-12-29T14:09:13;27.80;;;16.87;;
24277;SDS011;12394;42.692;23.314;2023-12-29T14:11:47;34.23;;;17.13;;
24277;SDS011;12394;42.692;23.314;2023-12-29T14:14:14;28.90;;;17.13;;
24277;SDS011;12394;42.692;23.314;2023-12-29T14:16:46;26.00;;;16.33;;
24277;SDS011;12394;42.692;23.314;2023-12-29T14:19:12;29.93;;;14.07;;
24277;SDS011;12394;42.692;23.314;2023-12-29T14:21:37;29.17;;;15.17;;
24277;SDS011;12394;42.692;23.314;2023-12-29T14:29:19;37.47;;;14.07;;
24277;SDS011;12394;42.692;23.314;2023-12-29T14:31:46;33.23;;;14.50;;
24277;SDS011;12394;42.692;23.314;2023-12-29T14:34:12;31.83;;;13.37;;
24277;SDS011;12394;42.692;23.314;2023-12-29T14:36:42;35.87;;;14.33;;
24277;SDS011;12394;42.692;23.314;2023-12-29T14:39:07;36.13;;;14.40;;